createdAt,value
2022-12-18T00:02:17.965Z,11.77
2022-12-18T00:04:45.347Z,11.88
2022-12-18T00:07:12.457Z,10.32
2022-12-18T00:09:40.579Z,14.23
2022-12-18T00:14:42.919Z,11.27
2022-12-18T00:17:10.161Z,12.00
2022-12-18T00:19:37.323Z,11.00
2022-12-18T00:22:04.654Z,11.40
2022-12-18T00:24:31.895Z,11.15
2022-12-18T00:26:59.004Z,10.63
2022-12-18T00:29:26.063Z,12.52
2022-12-18T00:31:53.755Z,11.98
2022-12-18T00:34:20.861Z,10.52
2022-12-18T00:36:49.345Z,10.85
2022-12-18T00:39:16.463Z,11.70
2022-12-18T00:42:02.456Z,11.13
2022-12-18T00:44:29.545Z,11.85
2022-12-18T00:46:56.710Z,11.40
2022-12-18T00:49:23.806Z,11.15
2022-12-18T00:51:50.932Z,10.18
2022-12-18T00:54:18.622Z,11.73
2022-12-18T00:56:48.997Z,11.52
2022-12-18T00:59:17.269Z,10.73
2022-12-18T01:01:44.510Z,10.90
2022-12-18T01:04:11.779Z,10.85
2022-12-18T01:06:38.879Z,13.27
2022-12-18T01:09:08.269Z,12.45
2022-12-18T01:11:35.340Z,12.65
2022-12-18T01:14:02.516Z,11.32
2022-12-18T01:16:29.682Z,10.95
2022-12-18T01:18:56.908Z,10.82
2022-12-18T01:21:25.065Z,12.25
2022-12-18T01:23:56.311Z,10.80
2022-12-18T01:26:23.474Z,10.88
2022-12-18T01:28:50.637Z,12.95
2022-12-18T01:31:19.927Z,11.77
2022-12-18T01:33:47.200Z,12.05
2022-12-18T01:36:22.144Z,11.93
2022-12-18T01:38:49.540Z,11.50
2022-12-18T01:41:18.241Z,13.98
2022-12-18T01:43:47.198Z,11.70
2022-12-18T01:48:41.969Z,13.43
2022-12-18T01:51:10.314Z,12.82
2022-12-18T01:53:38.024Z,11.73
2022-12-18T01:56:05.641Z,12.93
2022-12-18T01:58:43.318Z,12.38
2022-12-18T02:01:10.560Z,14.02
2022-12-18T02:03:38.199Z,10.98
2022-12-18T02:06:08.752Z,10.23
2022-12-18T02:08:47.471Z,12.18
2022-12-18T02:11:20.211Z,12.13
2022-12-18T02:13:47.319Z,11.27
2022-12-18T02:16:23.450Z,12.48
2022-12-18T02:18:52.492Z,11.23
2022-12-18T02:21:30.172Z,12.80
2022-12-18T02:24:16.318Z,12.77
2022-12-18T02:26:53.350Z,12.32
2022-12-18T02:29:28.530Z,10.90
2022-12-18T02:34:24.426Z,10.70
2022-12-18T02:36:52.369Z,12.80
2022-12-18T02:39:21.349Z,12.50
2022-12-18T02:44:15.795Z,11.93
2022-12-18T02:46:44.791Z,13.25
2022-12-18T02:51:48.109Z,12.57
2022-12-18T02:54:21.038Z,12.40
2022-12-18T02:56:54.282Z,11.90
2022-12-18T02:59:24.889Z,10.73
2022-12-18T03:01:52.101Z,12.10
2022-12-18T03:04:22.535Z,11.52
2022-12-18T03:06:51.564Z,12.95
2022-12-18T03:12:06.942Z,11.35
2022-12-18T03:14:35.657Z,11.93
2022-12-18T03:17:04.640Z,13.73
2022-12-18T03:19:34.026Z,12.73
2022-12-18T03:22:03.400Z,11.20
2022-12-18T03:24:31.513Z,10.93
2022-12-18T03:27:02.462Z,13.00
2022-12-18T03:29:34.723Z,9.73
2022-12-18T03:32:08.189Z,11.70
2022-12-18T03:34:37.232Z,10.23
2022-12-18T03:39:32.878Z,9.32
2022-12-18T03:42:06.566Z,10.90
2022-12-18T03:44:36.504Z,11.95
2022-12-18T03:47:03.628Z,11.82
2022-12-18T03:49:36.820Z,10.35
2022-12-18T03:52:06.898Z,11.50
2022-12-18T03:54:34.733Z,11.65
2022-12-18T03:57:08.315Z,13.82
2022-12-18T03:59:36.455Z,12.57
2022-12-18T04:02:04.688Z,12.32
2022-12-18T04:04:32.693Z,9.93
2022-12-18T04:07:00.143Z,9.55
2022-12-18T04:09:27.715Z,9.77
2022-12-18T04:11:54.823Z,12.77
2022-12-18T04:14:21.975Z,11.43
2022-12-18T04:16:49.086Z,10.20
2022-12-18T04:19:16.232Z,11.98
2022-12-18T04:21:43.361Z,11.20
2022-12-18T04:24:10.536Z,11.23
2022-12-18T04:26:37.645Z,10.25
2022-12-18T04:29:04.737Z,10.18
2022-12-18T04:31:31.933Z,10.55
2022-12-18T04:33:59.031Z,10.02
2022-12-18T04:36:26.146Z,9.15
2022-12-18T04:38:53.211Z,9.55
2022-12-18T04:41:20.383Z,9.23
2022-12-18T04:43:47.450Z,9.85
2022-12-18T04:46:14.600Z,11.10
2022-12-18T04:48:41.769Z,10.10
2022-12-18T04:51:08.945Z,10.88
2022-12-18T04:53:36.084Z,12.10
2022-12-18T04:56:13.717Z,11.02
2022-12-18T04:58:41.629Z,10.02
2022-12-18T05:01:09.468Z,9.70
2022-12-18T05:03:37.867Z,9.93
2022-12-18T05:06:06.054Z,9.75
2022-12-18T05:08:33.533Z,9.45
2022-12-18T05:11:07.932Z,11.23
2022-12-18T05:13:35.295Z,9.82
2022-12-18T05:16:02.854Z,10.15
2022-12-18T05:18:31.426Z,9.98
2022-12-18T05:20:58.934Z,10.20
2022-12-18T05:23:26.466Z,11.30
2022-12-18T05:25:54.233Z,9.25
2022-12-18T05:28:21.833Z,10.35
2022-12-18T05:30:52.577Z,11.43
2022-12-18T05:33:20.414Z,14.80
2022-12-18T05:35:52.002Z,8.73
2022-12-18T05:38:19.432Z,10.02
2022-12-18T05:40:47.020Z,8.80
2022-12-18T05:43:19.361Z,10.93
2022-12-18T05:45:48.207Z,7.93
2022-12-18T05:48:15.527Z,8.95
2022-12-18T05:50:43.645Z,7.65
2022-12-18T05:53:11.586Z,9.95
2022-12-18T05:55:39.519Z,8.63
2022-12-18T05:58:07.012Z,8.50
2022-12-18T06:00:35.809Z,8.90
2022-12-18T06:03:03.160Z,10.95
2022-12-18T06:05:30.396Z,8.35
2022-12-18T06:07:57.454Z,9.05
2022-12-18T06:10:25.698Z,8.02
2022-12-18T06:12:52.796Z,8.93
2022-12-18T06:15:19.902Z,6.40
2022-12-18T06:17:47.070Z,8.15
2022-12-18T06:20:14.199Z,7.82
2022-12-18T06:22:42.430Z,7.53
2022-12-18T06:25:09.868Z,7.70
2022-12-18T06:27:37.340Z,8.05
2022-12-18T06:30:04.937Z,7.45
2022-12-18T06:32:32.108Z,10.50
2022-12-18T06:34:59.373Z,6.95
2022-12-18T06:37:27.103Z,7.95
2022-12-18T06:39:54.833Z,9.90
2022-12-18T06:42:25.552Z,8.43
2022-12-18T06:44:52.743Z,8.15
2022-12-18T06:47:20.090Z,7.72
2022-12-18T06:49:47.173Z,8.05
2022-12-18T06:52:14.408Z,7.68
2022-12-18T06:54:41.534Z,6.95
2022-12-18T06:57:08.682Z,13.07
2022-12-18T06:59:35.764Z,19.48
2022-12-18T07:02:02.929Z,6.45
2022-12-18T07:04:30.996Z,10.07
2022-12-18T07:06:58.540Z,7.90
2022-12-18T07:09:26.004Z,8.68
2022-12-18T07:11:53.925Z,7.80
2022-12-18T07:14:21.580Z,7.45
2022-12-18T07:16:48.744Z,8.40
2022-12-18T07:19:16.989Z,6.82
2022-12-18T07:21:44.205Z,5.70
2022-12-18T07:24:11.365Z,9.18
2022-12-18T07:26:38.508Z,9.40
2022-12-18T07:29:05.581Z,8.13
2022-12-18T07:31:32.772Z,10.07
2022-12-18T07:33:59.995Z,8.13
2022-12-18T07:36:27.130Z,8.25
2022-12-18T07:38:54.282Z,10.65
2022-12-18T07:41:21.449Z,9.43
2022-12-18T07:43:48.653Z,8.93
2022-12-18T07:46:16.689Z,8.43
2022-12-18T07:48:46.290Z,9.32
2022-12-18T07:51:17.268Z,7.53
2022-12-18T07:53:45.510Z,9.98
2022-12-18T07:56:31.152Z,8.80
2022-12-18T07:58:58.948Z,10.23
2022-12-18T08:01:26.374Z,7.25
2022-12-18T08:03:53.597Z,8.77
2022-12-18T08:06:23.241Z,5.90
2022-12-18T08:08:52.653Z,11.23
2022-12-18T08:11:19.788Z,7.78
2022-12-18T08:13:46.979Z,7.90
2022-12-18T08:16:14.174Z,7.97
2022-12-18T08:18:41.334Z,6.88
2022-12-18T08:21:16.381Z,10.35
2022-12-18T08:23:44.271Z,8.68
2022-12-18T08:26:12.287Z,8.18
2022-12-18T08:28:39.530Z,6.88
2022-12-18T08:31:07.021Z,6.90
2022-12-18T08:33:34.719Z,5.80
2022-12-18T08:36:02.563Z,6.45
2022-12-18T08:38:29.741Z,6.85
2022-12-18T08:41:04.476Z,9.23
2022-12-18T08:43:50.331Z,6.43
2022-12-18T08:46:17.958Z,9.55
2022-12-18T08:48:45.328Z,7.63
2022-12-18T08:51:12.598Z,11.43
2022-12-18T08:53:40.770Z,6.90
2022-12-18T08:56:08.416Z,8.52
2022-12-18T08:58:35.539Z,8.02
2022-12-18T09:01:03.756Z,6.50
2022-12-18T09:03:31.221Z,6.65
2022-12-18T09:05:58.546Z,5.90
2022-12-18T09:08:25.641Z,6.32
2022-12-18T09:10:53.177Z,5.60
2022-12-18T09:13:20.668Z,7.38
2022-12-18T09:15:49.338Z,8.10
2022-12-18T09:18:17.085Z,6.00
2022-12-18T09:20:44.205Z,7.97
2022-12-18T09:23:11.439Z,7.43
2022-12-18T09:25:38.873Z,6.32
2022-12-18T09:28:13.835Z,7.32
2022-12-18T09:30:41.937Z,6.57
2022-12-18T09:33:09.255Z,7.05
2022-12-18T09:35:39.738Z,6.80
2022-12-18T09:38:07.164Z,8.52
2022-12-18T09:40:40.329Z,7.18
2022-12-18T09:43:08.706Z,6.93
2022-12-18T09:45:45.810Z,6.07
2022-12-18T09:48:20.346Z,6.85
2022-12-18T09:50:47.991Z,5.70
2022-12-18T09:53:19.371Z,6.63
2022-12-18T09:55:47.456Z,8.40
2022-12-18T09:58:20.700Z,5.57
2022-12-18T10:00:48.047Z,6.50
2022-12-18T10:03:16.045Z,9.00
2022-12-18T10:05:46.978Z,6.18
2022-12-18T10:08:25.028Z,5.53
2022-12-18T10:10:53.823Z,6.35
2022-12-18T10:13:24.343Z,5.30
2022-12-18T10:15:52.857Z,7.85
2022-12-18T10:18:26.799Z,5.63
2022-12-18T10:20:56.488Z,6.55
2022-12-18T10:24:02.181Z,6.13
2022-12-18T10:26:29.355Z,6.15
2022-12-18T10:29:02.203Z,7.07
2022-12-18T10:31:32.644Z,5.38
2022-12-18T10:34:00.081Z,5.97
2022-12-18T10:36:27.209Z,6.97
2022-12-18T10:38:54.392Z,5.50
2022-12-18T10:41:27.414Z,5.97
2022-12-18T10:44:13.004Z,5.40
2022-12-18T10:46:43.526Z,7.10
2022-12-18T10:49:20.952Z,6.15
2022-12-18T10:51:51.317Z,6.20
2022-12-18T10:54:24.427Z,6.13
2022-12-18T10:56:52.189Z,6.72
2022-12-18T10:59:20.189Z,6.85
2022-12-18T11:01:49.591Z,6.63
2022-12-18T11:04:18.843Z,5.22
2022-12-18T11:07:04.530Z,6.35
2022-12-18T11:09:38.592Z,7.65
2022-12-18T11:12:07.552Z,6.43
2022-12-18T11:14:35.852Z,6.45
2022-12-18T11:17:25.275Z,5.63
2022-12-18T11:20:00.199Z,6.03
2022-12-18T11:22:29.380Z,6.10
2022-12-18T11:27:54.624Z,7.25
2022-12-18T11:30:21.786Z,5.75
2022-12-18T11:32:50.517Z,5.28
2022-12-18T11:35:27.706Z,5.53
2022-12-18T11:38:12.643Z,6.80
2022-12-18T11:40:42.016Z,5.78
2022-12-18T11:43:09.115Z,6.25
2022-12-18T11:45:37.695Z,5.28
2022-12-18T11:48:07.871Z,5.70
2022-12-18T11:50:39.026Z,4.95
2022-12-18T11:53:06.639Z,6.60
2022-12-18T11:55:48.805Z,5.10
2022-12-18T11:58:45.746Z,5.85
2022-12-18T12:01:21.678Z,6.55
2022-12-18T12:04:13.257Z,6.30
2022-12-18T12:06:49.797Z,7.47
2022-12-18T12:09:19.679Z,6.93
2022-12-18T12:11:55.698Z,6.40
2022-12-18T12:14:35.049Z,4.65
2022-12-18T12:17:04.871Z,8.43
2022-12-18T12:19:37.168Z,5.60
2022-12-18T12:22:04.248Z,5.93
2022-12-18T12:24:49.728Z,5.70
2022-12-18T12:27:19.871Z,5.85
2022-12-18T12:30:05.706Z,6.25
2022-12-18T12:33:03.865Z,6.72
2022-12-18T12:35:30.983Z,6.00
2022-12-18T12:38:01.222Z,5.40
2022-12-18T12:43:26.028Z,4.63
2022-12-18T12:46:01.997Z,6.68
2022-12-18T12:48:34.482Z,7.28
2022-12-18T12:51:09.120Z,6.20
2022-12-18T12:53:39.343Z,5.85
2022-12-18T12:56:07.667Z,5.85
2022-12-18T12:58:34.818Z,6.63
2022-12-18T13:01:07.763Z,6.72
2022-12-18T13:03:40.744Z,6.15
2022-12-18T13:06:44.547Z,8.15
2022-12-18T13:09:12.190Z,6.93
2022-12-18T13:12:05.113Z,7.22
2022-12-18T13:14:32.359Z,4.70
2022-12-18T13:17:32.270Z,5.38
2022-12-18T13:20:07.319Z,5.53
2022-12-18T13:22:38.804Z,8.95
2022-12-18T13:25:26.221Z,6.95
2022-12-18T13:28:04.086Z,6.03
2022-12-18T13:30:34.455Z,5.28
2022-12-18T13:33:17.583Z,5.10
2022-12-18T13:35:47.755Z,6.13
2022-12-18T13:38:23.856Z,5.95
2022-12-18T13:40:51.120Z,5.53
2022-12-18T13:43:23.723Z,6.07
2022-12-18T13:46:03.315Z,4.88
2022-12-18T13:48:32.891Z,6.63
2022-12-18T13:51:05.080Z,5.22
2022-12-18T13:53:34.796Z,6.22
2022-12-18T13:56:03.682Z,6.25
2022-12-18T13:58:31.106Z,5.72
2022-12-18T14:01:03.043Z,4.63
2022-12-18T14:03:31.652Z,6.90
2022-12-18T14:06:03.834Z,6.30
2022-12-18T14:08:34.746Z,5.72
2022-12-18T14:11:02.446Z,5.78
2022-12-18T14:13:32.913Z,5.57
2022-12-18T14:16:03.791Z,7.63
2022-12-18T14:18:44.633Z,7.10
2022-12-18T14:21:25.831Z,5.97
2022-12-18T14:24:06.355Z,5.60
2022-12-18T14:26:34.259Z,5.85
2022-12-18T14:29:23.265Z,5.28
2022-12-18T14:32:14.951Z,6.35
2022-12-18T14:34:55.143Z,5.90
2022-12-18T14:37:26.370Z,5.57
2022-12-18T14:39:54.962Z,6.72
2022-12-18T14:42:22.122Z,7.35
2022-12-18T14:47:36.418Z,6.20
2022-12-18T14:50:03.664Z,5.35
2022-12-18T14:52:33.317Z,4.78
2022-12-18T14:55:00.939Z,4.82
2022-12-18T14:57:34.410Z,7.00
2022-12-18T15:00:10.734Z,6.20
2022-12-18T15:02:38.198Z,6.78
2022-12-18T15:05:12.891Z,5.47
2022-12-18T15:07:44.751Z,5.80
2022-12-18T15:10:15.449Z,5.70
2022-12-18T15:12:46.493Z,5.25
2022-12-18T15:15:33.019Z,5.88
2022-12-18T15:18:14.253Z,7.25
2022-12-18T15:20:42.696Z,6.55
2022-12-18T15:23:29.373Z,5.53
2022-12-18T15:26:05.873Z,6.10
2022-12-18T15:28:36.194Z,4.63
2022-12-18T15:31:12.607Z,5.40
2022-12-18T15:33:45.204Z,5.72
2022-12-18T15:36:16.706Z,9.07
2022-12-18T15:38:49.917Z,6.07
2022-12-18T15:41:24.209Z,7.15
2022-12-18T15:43:52.761Z,6.43
2022-12-18T15:46:24.317Z,5.30
2022-12-18T15:48:55.539Z,6.05
2022-12-18T15:51:47.226Z,8.02
2022-12-18T15:54:39.480Z,6.68
2022-12-18T15:57:27.650Z,5.35
2022-12-18T15:59:59.223Z,6.57
2022-12-18T16:02:26.910Z,6.32
2022-12-18T16:04:55.040Z,5.78
2022-12-18T16:07:25.471Z,4.85
2022-12-18T16:09:53.236Z,6.03
2022-12-18T16:12:24.314Z,6.63
2022-12-18T16:14:51.979Z,6.50
2022-12-18T16:17:19.838Z,9.38
2022-12-18T16:19:46.951Z,4.85
2022-12-18T16:22:21.968Z,6.47
2022-12-18T16:24:49.167Z,5.15
2022-12-18T16:27:16.533Z,5.90
2022-12-18T16:29:45.050Z,5.93
2022-12-18T16:32:16.776Z,5.68
2022-12-18T16:34:44.599Z,6.28
2022-12-18T16:37:12.495Z,6.05
2022-12-18T16:39:40.226Z,6.43
2022-12-18T16:42:20.008Z,7.20
2022-12-18T16:44:48.443Z,6.40
2022-12-18T16:47:17.297Z,6.88
2022-12-18T16:49:51.491Z,6.13
2022-12-18T16:52:18.617Z,6.25
2022-12-18T16:54:45.803Z,6.88
2022-12-18T16:57:17.390Z,7.15
2022-12-18T16:59:44.878Z,5.50
2022-12-18T17:02:17.202Z,6.55
2022-12-18T17:04:46.466Z,6.18
2022-12-18T17:07:14.306Z,5.25
2022-12-18T17:09:41.858Z,5.65
2022-12-18T17:12:09.451Z,9.63
2022-12-18T17:14:37.157Z,6.70
2022-12-18T17:17:21.781Z,6.18
2022-12-18T17:19:50.109Z,5.55
2022-12-18T17:22:17.229Z,4.95
2022-12-18T17:24:47.327Z,6.50
2022-12-18T17:27:14.815Z,6.70
2022-12-18T17:29:48.086Z,5.47
2022-12-18T17:32:15.869Z,5.72
2022-12-18T17:34:42.944Z,5.85
2022-12-18T17:37:17.169Z,5.43
2022-12-18T17:39:46.338Z,6.90
2022-12-18T17:42:15.541Z,5.78
2022-12-18T17:44:43.146Z,9.13
2022-12-18T17:47:14.275Z,8.05
2022-12-18T17:49:41.507Z,5.30
2022-12-18T17:52:08.978Z,7.70
2022-12-18T17:54:39.464Z,5.53
2022-12-18T17:57:06.652Z,12.20
2022-12-18T17:59:34.053Z,7.65
2022-12-18T18:02:02.834Z,8.68
2022-12-18T18:04:30.118Z,9.82
2022-12-18T18:06:57.185Z,6.82
2022-12-18T18:09:25.471Z,4.95
2022-12-18T18:12:11.574Z,7.15
2022-12-18T18:14:40.965Z,7.80
2022-12-18T18:17:08.334Z,10.40
2022-12-18T18:19:40.911Z,7.18
2022-12-18T18:22:10.339Z,5.72
2022-12-18T18:24:38.016Z,8.35
2022-12-18T18:27:05.247Z,6.68
2022-12-18T18:29:32.479Z,9.05
2022-12-18T18:31:59.706Z,8.18
2022-12-18T18:34:30.376Z,5.93
2022-12-18T18:36:57.469Z,8.40
2022-12-18T18:39:24.633Z,7.55
2022-12-18T18:41:52.152Z,7.75
2022-12-18T18:44:21.541Z,9.45
2022-12-18T18:46:54.468Z,6.80
2022-12-18T18:49:21.619Z,7.68
2022-12-18T18:51:50.838Z,10.80
2022-12-18T18:54:17.970Z,6.68
2022-12-18T18:57:18.727Z,7.47
2022-12-18T18:59:32.411Z,6.38
2022-12-18T19:02:04.214Z,8.65
2022-12-18T19:04:32.500Z,8.88
2022-12-18T19:06:59.679Z,6.22
2022-12-18T19:09:27.986Z,7.35
2022-12-18T19:12:14.385Z,8.00
2022-12-18T19:14:41.449Z,8.30
2022-12-18T19:17:09.265Z,8.18
2022-12-18T19:19:36.630Z,7.50
2022-12-18T19:22:04.154Z,8.10
2022-12-18T19:24:31.452Z,7.28
2022-12-18T19:27:02.111Z,7.82
2022-12-18T19:29:29.233Z,7.13
2022-12-18T19:31:56.460Z,7.57
2022-12-18T19:34:23.608Z,9.95
2022-12-18T19:36:53.944Z,10.07
2022-12-18T19:39:27.723Z,9.77
2022-12-18T19:41:54.869Z,11.10
2022-12-18T19:44:21.998Z,9.57
2022-12-18T19:46:51.689Z,7.32
2022-12-18T19:49:22.082Z,7.28
2022-12-18T19:51:50.455Z,7.55
2022-12-18T19:54:18.240Z,7.22
2022-12-18T19:56:46.102Z,7.85
2022-12-18T19:59:13.336Z,8.00
2022-12-18T20:01:40.650Z,7.93
2022-12-18T20:04:08.269Z,7.15
2022-12-18T20:06:56.026Z,8.25
2022-12-18T20:09:23.394Z,7.70
2022-12-18T20:11:50.998Z,8.38
2022-12-18T20:14:21.147Z,8.45
2022-12-18T20:16:50.703Z,7.55
2022-12-18T20:19:19.281Z,8.05
2022-12-18T20:21:47.058Z,7.47
2022-12-18T20:24:14.394Z,9.02
2022-12-18T20:26:41.597Z,8.45
2022-12-18T20:29:08.769Z,7.35
2022-12-18T20:31:35.957Z,8.90
2022-12-18T20:34:05.047Z,8.13
2022-12-18T20:36:35.322Z,9.50
2022-12-18T20:39:07.509Z,10.73
2022-12-18T20:41:37.554Z,6.47
2022-12-18T20:44:09.873Z,8.25
2022-12-18T20:46:49.654Z,7.78
2022-12-18T20:49:22.630Z,11.93
2022-12-18T20:51:54.001Z,7.70
2022-12-18T20:54:22.017Z,8.20
2022-12-18T20:56:49.349Z,8.60
2022-12-18T20:59:20.054Z,7.78
2022-12-18T21:01:52.425Z,10.43
2022-12-18T21:04:20.223Z,8.35
2022-12-18T21:07:02.088Z,6.95
2022-12-18T21:09:37.538Z,9.38
2022-12-18T21:12:27.945Z,10.70
2022-12-18T21:14:55.385Z,8.50
2022-12-18T21:17:26.714Z,8.25
2022-12-18T21:19:55.965Z,7.22
2022-12-18T21:22:23.569Z,8.52
2022-12-18T21:24:50.992Z,5.45
2022-12-18T21:27:18.512Z,7.78
2022-12-18T21:29:47.131Z,9.05
2022-12-18T21:32:15.923Z,7.88
2022-12-18T21:34:52.574Z,7.15
2022-12-18T21:37:22.507Z,8.02
2022-12-18T21:39:52.445Z,8.35
2022-12-18T21:42:38.404Z,7.65
2022-12-18T21:45:06.277Z,6.82
2022-12-18T21:47:33.505Z,6.53
2022-12-18T21:50:00.657Z,7.25
2022-12-18T21:52:32.578Z,7.18
2022-12-18T21:55:06.640Z,7.00
2022-12-18T21:57:39.360Z,7.45
2022-12-18T22:00:07.476Z,7.18
2022-12-18T22:02:45.557Z,8.85
2022-12-18T22:05:13.013Z,7.32
2022-12-18T22:07:40.509Z,7.13
2022-12-18T22:10:07.994Z,6.63
2022-12-18T22:12:35.673Z,7.28
2022-12-18T22:15:07.426Z,7.43
2022-12-18T22:17:34.579Z,7.93
2022-12-18T22:20:01.801Z,7.72
2022-12-18T22:22:29.081Z,8.65
2022-12-18T22:24:56.252Z,8.32
2022-12-18T22:27:23.406Z,6.25
2022-12-18T22:30:06.047Z,7.28
2022-12-18T22:32:33.974Z,7.55
2022-12-18T22:35:06.798Z,6.65
2022-12-18T22:37:34.410Z,5.88
2022-12-18T22:40:09.585Z,8.05
2022-12-18T22:42:42.951Z,7.30
2022-12-18T22:45:10.217Z,6.60
2022-12-18T22:47:40.095Z,6.47
2022-12-18T22:50:12.718Z,7.30
2022-12-18T22:52:39.818Z,5.93
2022-12-18T22:55:07.426Z,6.22
2022-12-18T22:57:34.653Z,6.70
2022-12-18T23:00:02.774Z,6.60
2022-12-18T23:02:30.249Z,9.05
2022-12-18T23:04:57.523Z,8.52
2022-12-18T23:07:24.983Z,7.32
2022-12-18T23:09:59.548Z,6.72
2022-12-18T23:12:28.055Z,6.00
2022-12-18T23:14:55.186Z,6.32
2022-12-18T23:17:22.340Z,6.45
2022-12-18T23:19:49.605Z,6.63
2022-12-18T23:22:17.198Z,6.18
2022-12-18T23:24:44.468Z,7.38
2022-12-18T23:27:12.262Z,6.53
2022-12-18T23:29:39.902Z,7.15
2022-12-18T23:32:07.044Z,5.78
2022-12-18T23:34:34.151Z,7.05
2022-12-18T23:37:03.478Z,5.70
2022-12-18T23:39:30.620Z,5.65
2022-12-18T23:42:00.805Z,7.13
2022-12-18T23:44:28.561Z,7.50
2022-12-18T23:46:56.020Z,7.55
2022-12-18T23:49:23.412Z,6.38
2022-12-18T23:51:50.840Z,6.90
2022-12-18T23:54:18.929Z,5.72
2022-12-18T23:57:00.353Z,6.05
2022-12-18T23:59:27.432Z,4.78
